sensor_id;sensor_type;location;lat;lon;timestamp;P1;P2;P0
64315;PMS5003;50652;51.482;-0.580;2023-05-20T00:00:13;20;16;
64315;PMS5003;50652;51.482;-0.580;2023-05-20T00:02:39;20;19;
64315;PMS5003;50652;51.482;-0.580;2023-05-20T00:05:07;18;18;
64315;PMS5003;50652;51.482;-0.580;2023-05-20T00:07:34;18;16;
64315;PMS5003;50652;51.482;-0.580;2023-05-20T00:10:03;23;20;
64315;PMS5003;50652;51.482;-0.580;2023-05-20T00:19:54;20;19;
64315;PMS5003;50652;51.482;-0.580;2023-05-20T00:22:22;21;16;
64315;PMS5003;50652;51.482;-0.580;2023-05-20T00:24:49;14;12;
64315;PMS5003;50652;51.482;-0.580;2023-05-20T00:27:16;15;15;
64315;PMS5003;50652;51.482;-0.580;2023-05-20T00:29:43;18;15;
64315;PMS5003;50652;51.482;-0.580;2023-05-20T00:32:10;19;17;
64315;PMS5003;50652;51.482;-0.580;2023-05-20T00:34:37;18;18;
64315;PMS5003;50652;51.482;-0.580;2023-05-20T00:37:04;17;14;
64315;PMS5003;50652;51.482;-0.580;2023-05-20T00:39:31;15;15;
64315;PMS5003;50652;51.482;-0.580;2023-05-20T00:41:58;20;14;
64315;PMS5003;50652;51.482;-0.580;2023-05-20T00:44:26;13;13;
64315;PMS5003;50652;51.482;-0.580;2023-05-20T00:46:54;20;16;
64315;PMS5003;50652;51.482;-0.580;2023-05-20T00:49:21;20;16;
64315;PMS5003;50652;51.482;-0.580;2023-05-20T00:51:48;20;20;
64315;PMS5003;50652;51.482;-0.580;2023-05-20T00:54:15;17;15;
64315;PMS5003;50652;51.482;-0.580;2023-05-20T00:56:43;19;19;
64315;PMS5003;50652;51.482;-0.580;2023-05-20T00:59:10;17;17;
64315;PMS5003;50652;51.482;-0.580;2023-05-20T01:01:37;21;18;
64315;PMS5003;50652;51.482;-0.580;2023-05-20T01:04:06;19;16;
64315;PMS5003;50652;51.482;-0.580;2023-05-20T01:06:33;14;13;
64315;PMS5003;50652;51.482;-0.580;2023-05-20T01:09:04;24;18;
64315;PMS5003;50652;51.482;-0.580;2023-05-20T01:11:33;20;17;
64315;PMS5003;50652;51.482;-0.580;2023-05-20T01:14:05;15;15;
64315;PMS5003;50652;51.482;-0.580;2023-05-20T01:16:34;19;15;
64315;PMS5003;50652;51.482;-0.580;2023-05-20T01:19:05;20;18;
64315;PMS5003;50652;51.482;-0.580;2023-05-20T01:21:42;18;18;
64315;PMS5003;50652;51.482;-0.580;2023-05-20T01:24:10;15;14;
64315;PMS5003;50652;51.482;-0.580;2023-05-20T01:26:38;23;17;
64315;PMS5003;50652;51.482;-0.580;2023-05-20T01:29:05;24;19;
64315;PMS5003;50652;51.482;-0.580;2023-05-20T01:31:33;21;16;
64315;PMS5003;50652;51.482;-0.580;2023-05-20T01:34:03;18;14;
64315;PMS5003;50652;51.482;-0.580;2023-05-20T01:36:32;22;21;
64315;PMS5003;50652;51.482;-0.580;2023-05-20T01:38:59;23;19;
64315;PMS5003;50652;51.482;-0.580;2023-05-20T01:41:31;24;21;
64315;PMS5003;50652;51.482;-0.580;2023-05-20T01:44:01;24;19;
64315;PMS5003;50652;51.482;-0.580;2023-05-20T01:46:31;24;20;
64315;PMS5003;50652;51.482;-0.580;2023-05-20T01:48:58;19;18;
64315;PMS5003;50652;51.482;-0.580;2023-05-20T01:51:26;21;21;
64315;PMS5003;50652;51.482;-0.580;2023-05-20T01:53:53;29;24;
64315;PMS5003;50652;51.482;-0.580;2023-05-20T01:56:20;21;21;
64315;PMS5003;50652;51.482;-0.580;2023-05-20T01:58:47;19;18;
64315;PMS5003;50652;51.482;-0.580;2023-05-20T02:01:13;24;18;
64315;PMS5003;50652;51.482;-0.580;2023-05-20T02:03:41;25;19;
64315;PMS5003;50652;51.482;-0.580;2023-05-20T02:06:08;24;22;
64315;PMS5003;50652;51.482;-0.580;2023-05-20T02:08:36;25;20;
64315;PMS5003;50652;51.482;-0.580;2023-05-20T02:11:04;17;17;
64315;PMS5003;50652;51.482;-0.580;2023-05-20T02:13:31;21;19;
64315;PMS5003;50652;51.482;-0.580;2023-05-20T02:15:58;24;18;
64315;PMS5003;50652;51.482;-0.580;2023-05-20T02:18:24;30;23;
64315;PMS5003;50652;51.482;-0.580;2023-05-20T02:20:52;22;19;
64315;PMS5003;50652;51.482;-0.580;2023-05-20T02:23:18;22;19;
64315;PMS5003;50652;51.482;-0.580;2023-05-20T02:25:45;17;17;
64315;PMS5003;50652;51.482;-0.580;2023-05-20T02:28:12;25;20;
64315;PMS5003;50652;51.482;-0.580;2023-05-20T02:30:39;28;18;
64315;PMS5003;50652;51.482;-0.580;2023-05-20T02:33:06;20;17;
64315;PMS5003;50652;51.482;-0.580;2023-05-20T02:35:33;17;17;
64315;PMS5003;50652;51.482;-0.580;2023-05-20T02:38:04;21;20;
64315;PMS5003;50652;51.482;-0.580;2023-05-20T02:40:31;27;21;
64315;PMS5003;50652;51.482;-0.580;2023-05-20T02:42:58;20;17;
64315;PMS5003;50652;51.482;-0.580;2023-05-20T02:45:26;18;17;
64315;PMS5003;50652;51.482;-0.580;2023-05-20T02:47:53;20;19;
64315;PMS5003;50652;51.482;-0.580;2023-05-20T02:50:20;20;18;
64315;PMS5003;50652;51.482;-0.580;2023-05-20T02:52:47;21;18;
64315;PMS5003;50652;51.482;-0.580;2023-05-20T02:55:14;18;15;
64315;PMS5003;50652;51.482;-0.580;2023-05-20T02:57:41;22;18;
64315;PMS5003;50652;51.482;-0.580;2023-05-20T03:00:09;18;18;
64315;PMS5003;50652;51.482;-0.580;2023-05-20T03:02:37;22;17;
64315;PMS5003;50652;51.482;-0.580;2023-05-20T03:05:05;20;17;
64315;PMS5003;50652;51.482;-0.580;2023-05-20T03:07:33;27;19;
64315;PMS5003;50652;51.482;-0.580;2023-05-20T03:10:01;24;21;
64315;PMS5003;50652;51.482;-0.580;2023-05-20T03:12:28;25;20;
64315;PMS5003;50652;51.482;-0.580;2023-05-20T03:14:56;23;20;
64315;PMS5003;50652;51.482;-0.580;2023-05-20T03:17:22;23;21;
64315;PMS5003;50652;51.482;-0.580;2023-05-20T03:19:50;18;15;
64315;PMS5003;50652;51.482;-0.580;2023-05-20T03:22:17;26;21;
64315;PMS5003;50652;51.482;-0.580;2023-05-20T03:24:44;25;21;
64315;PMS5003;50652;51.482;-0.580;2023-05-20T03:27:11;19;17;
64315;PMS5003;50652;51.482;-0.580;2023-05-20T03:29:38;24;21;
64315;PMS5003;50652;51.482;-0.580;2023-05-20T03:32:06;24;20;
64315;PMS5003;50652;51.482;-0.580;2023-05-20T03:34:33;22;18;
64315;PMS5003;50652;51.482;-0.580;2023-05-20T03:36:59;21;18;
64315;PMS5003;50652;51.482;-0.580;2023-05-20T03:39:26;22;19;
64315;PMS5003;50652;51.482;-0.580;2023-05-20T03:41:53;23;21;
64315;PMS5003;50652;51.482;-0.580;2023-05-20T03:44:21;24;21;
64315;PMS5003;50652;51.482;-0.580;2023-05-20T03:46:48;22;18;
64315;PMS5003;50652;51.482;-0.580;2023-05-20T03:49:16;18;17;
64315;PMS5003;50652;51.482;-0.580;2023-05-20T03:51:43;24;21;
64315;PMS5003;50652;51.482;-0.580;2023-05-20T03:54:10;27;23;
64315;PMS5003;50652;51.482;-0.580;2023-05-20T03:56:38;22;21;
64315;PMS5003;50652;51.482;-0.580;2023-05-20T03:59:05;27;24;
64315;PMS5003;50652;51.482;-0.580;2023-05-20T04:01:32;21;19;
64315;PMS5003;50652;51.482;-0.580;2023-05-20T04:03:59;21;19;
64315;PMS5003;50652;51.482;-0.580;2023-05-20T04:06:26;23;22;
64315;PMS5003;50652;51.482;-0.580;2023-05-20T04:08:53;25;23;
64315;PMS5003;50652;51.482;-0.580;2023-05-20T04:11:20;18;17;
64315;PMS5003;50652;51.482;-0.580;2023-05-20T04:13:48;18;17;
64315;PMS5003;50652;51.482;-0.580;2023-05-20T04:16:15;26;20;
64315;PMS5003;50652;51.482;-0.580;2023-05-20T04:18:42;23;22;
64315;PMS5003;50652;51.482;-0.580;2023-05-20T04:21:09;27;23;
64315;PMS5003;50652;51.482;-0.580;2023-05-20T04:23:36;25;22;
64315;PMS5003;50652;51.482;-0.580;2023-05-20T04:26:03;23;21;
64315;PMS5003;50652;51.482;-0.580;2023-05-20T04:28:31;26;24;
64315;PMS5003;50652;51.482;-0.580;2023-05-20T04:30:58;28;22;
64315;PMS5003;50652;51.482;-0.580;2023-05-20T04:33:26;22;22;
64315;PMS5003;50652;51.482;-0.580;2023-05-20T04:35:53;22;19;
64315;PMS5003;50652;51.482;-0.580;2023-05-20T04:38:19;26;19;
64315;PMS5003;50652;51.482;-0.580;2023-05-20T04:40:46;21;18;
64315;PMS5003;50652;51.482;-0.580;2023-05-20T04:43:14;28;25;
64315;PMS5003;50652;51.482;-0.580;2023-05-20T04:45:41;27;24;
64315;PMS5003;50652;51.482;-0.580;2023-05-20T04:48:08;22;18;
64315;PMS5003;50652;51.482;-0.580;2023-05-20T04:50:36;21;18;
64315;PMS5003;50652;51.482;-0.580;2023-05-20T04:53:03;27;21;
64315;PMS5003;50652;51.482;-0.580;2023-05-20T04:55:31;30;26;
64315;PMS5003;50652;51.482;-0.580;2023-05-20T04:57:58;19;19;
64315;PMS5003;50652;51.482;-0.580;2023-05-20T05:00:25;29;25;
64315;PMS5003;50652;51.482;-0.580;2023-05-20T05:02:52;26;23;
64315;PMS5003;50652;51.482;-0.580;2023-05-20T05:05:19;25;20;
64315;PMS5003;50652;51.482;-0.580;2023-05-20T05:07:46;22;19;
64315;PMS5003;50652;51.482;-0.580;2023-05-20T05:10:13;26;20;
64315;PMS5003;50652;51.482;-0.580;2023-05-20T05:12:40;28;26;
64315;PMS5003;50652;51.482;-0.580;2023-05-20T05:15:07;26;21;
64315;PMS5003;50652;51.482;-0.580;2023-05-20T05:17:35;22;19;
64315;PMS5003;50652;51.482;-0.580;2023-05-20T05:20:02;25;22;
64315;PMS5003;50652;51.482;-0.580;2023-05-20T05:22:29;20;20;
64315;PMS5003;50652;51.482;-0.580;2023-05-20T05:24:57;20;18;
64315;PMS5003;50652;51.482;-0.580;2023-05-20T05:27:23;24;18;
64315;PMS5003;50652;51.482;-0.580;2023-05-20T05:29:51;28;26;
64315;PMS5003;50652;51.482;-0.580;2023-05-20T05:32:18;25;18;
64315;PMS5003;50652;51.482;-0.580;2023-05-20T05:34:46;24;21;
64315;PMS5003;50652;51.482;-0.580;2023-05-20T05:37:13;24;23;
64315;PMS5003;50652;51.482;-0.580;2023-05-20T05:39:40;26;24;
64315;PMS5003;50652;51.482;-0.580;2023-05-20T05:42:07;21;19;
64315;PMS5003;50652;51.482;-0.580;2023-05-20T05:44:34;21;15;
64315;PMS5003;50652;51.482;-0.580;2023-05-20T05:47:00;18;18;
64315;PMS5003;50652;51.482;-0.580;2023-05-20T05:49:27;21;18;
64315;PMS5003;50652;51.482;-0.580;2023-05-20T05:51:54;19;19;
64315;PMS5003;50652;51.482;-0.580;2023-05-20T05:54:21;26;25;
64315;PMS5003;50652;51.482;-0.580;2023-05-20T05:56:49;24;21;
64315;PMS5003;50652;51.482;-0.580;2023-05-20T05:59:16;17;15;
64315;PMS5003;50652;51.482;-0.580;2023-05-20T06:01:44;18;16;
64315;PMS5003;50652;51.482;-0.580;2023-05-20T06:04:12;22;19;
64315;PMS5003;50652;51.482;-0.580;2023-05-20T06:06:39;22;20;
64315;PMS5003;50652;51.482;-0.580;2023-05-20T06:09:06;22;20;
64315;PMS5003;50652;51.482;-0.580;2023-05-20T06:11:33;26;22;
64315;PMS5003;50652;51.482;-0.580;2023-05-20T06:14:00;27;20;
64315;PMS5003;50652;51.482;-0.580;2023-05-20T06:16:28;19;19;
64315;PMS5003;50652;51.482;-0.580;2023-05-20T06:18:55;23;22;
64315;PMS5003;50652;51.482;-0.580;2023-05-20T06:21:22;19;19;
64315;PMS5003;50652;51.482;-0.580;2023-05-20T06:23:49;26;20;
64315;PMS5003;50652;51.482;-0.580;2023-05-20T06:26:16;23;21;
64315;PMS5003;50652;51.482;-0.580;2023-05-20T06:28:44;27;22;
64315;PMS5003;50652;51.482;-0.580;2023-05-20T06:31:11;23;22;
64315;PMS5003;50652;51.482;-0.580;2023-05-20T06:33:38;24;18;
64315;PMS5003;50652;51.482;-0.580;2023-05-20T06:36:05;21;17;
64315;PMS5003;50652;51.482;-0.580;2023-05-20T06:38:33;24;21;
64315;PMS5003;50652;51.482;-0.580;2023-05-20T06:41:01;25;20;
64315;PMS5003;50652;51.482;-0.580;2023-05-20T06:43:28;22;20;
64315;PMS5003;50652;51.482;-0.580;2023-05-20T06:45:55;28;23;
64315;PMS5003;50652;51.482;-0.580;2023-05-20T06:48:21;18;18;
64315;PMS5003;50652;51.482;-0.580;2023-05-20T06:50:49;21;21;
64315;PMS5003;50652;51.482;-0.580;2023-05-20T06:53:16;20;20;
64315;PMS5003;50652;51.482;-0.580;2023-05-20T06:55:43;22;20;
64315;PMS5003;50652;51.482;-0.580;2023-05-20T06:58:10;24;21;
64315;PMS5003;50652;51.482;-0.580;2023-05-20T07:00:38;21;20;
64315;PMS5003;50652;51.482;-0.580;2023-05-20T07:03:05;33;29;
64315;PMS5003;50652;51.482;-0.580;2023-05-20T07:05:32;25;22;
64315;PMS5003;50652;51.482;-0.580;2023-05-20T07:07:59;20;18;
64315;PMS5003;50652;51.482;-0.580;2023-05-20T07:10:25;21;19;
64315;PMS5003;50652;51.482;-0.580;2023-05-20T07:12:52;27;22;
64315;PMS5003;50652;51.482;-0.580;2023-05-20T07:15:19;26;23;
64315;PMS5003;50652;51.482;-0.580;2023-05-20T07:17:47;24;23;
64315;PMS5003;50652;51.482;-0.580;2023-05-20T07:20:14;24;19;
64315;PMS5003;50652;51.482;-0.580;2023-05-20T07:22:41;18;18;
64315;PMS5003;50652;51.482;-0.580;2023-05-20T07:25:09;23;20;
64315;PMS5003;50652;51.482;-0.580;2023-05-20T07:27:36;22;19;
64315;PMS5003;50652;51.482;-0.580;2023-05-20T07:30:04;25;22;
64315;PMS5003;50652;51.482;-0.580;2023-05-20T07:32:32;30;23;
64315;PMS5003;50652;51.482;-0.580;2023-05-20T07:34:59;27;23;
64315;PMS5003;50652;51.482;-0.580;2023-05-20T07:37:26;25;23;
64315;PMS5003;50652;51.482;-0.580;2023-05-20T07:39:54;22;18;
64315;PMS5003;50652;51.482;-0.580;2023-05-20T07:42:21;27;21;
64315;PMS5003;50652;51.482;-0.580;2023-05-20T07:44:49;26;22;
64315;PMS5003;50652;51.482;-0.580;2023-05-20T07:47:16;25;21;
64315;PMS5003;50652;51.482;-0.580;2023-05-20T07:49:43;22;20;
64315;PMS5003;50652;51.482;-0.580;2023-05-20T07:52:11;22;17;
64315;PMS5003;50652;51.482;-0.580;2023-05-20T07:54:40;26;24;
64315;PMS5003;50652;51.482;-0.580;2023-05-20T07:57:07;25;24;
64315;PMS5003;50652;51.482;-0.580;2023-05-20T07:59:35;26;23;
64315;PMS5003;50652;51.482;-0.580;2023-05-20T08:02:02;24;19;
64315;PMS5003;50652;51.482;-0.580;2023-05-20T08:04:29;23;17;
64315;PMS5003;50652;51.482;-0.580;2023-05-20T08:06:57;24;20;
64315;PMS5003;50652;51.482;-0.580;2023-05-20T08:09:24;19;17;
64315;PMS5003;50652;51.482;-0.580;2023-05-20T08:11:51;20;20;
64315;PMS5003;50652;51.482;-0.580;2023-05-20T08:14:18;25;20;
64315;PMS5003;50652;51.482;-0.580;2023-05-20T08:16:46;19;15;
64315;PMS5003;50652;51.482;-0.580;2023-05-20T08:19:13;17;17;
64315;PMS5003;50652;51.482;-0.580;2023-05-20T08:21:40;19;19;
64315;PMS5003;50652;51.482;-0.580;2023-05-20T08:24:08;19;17;
64315;PMS5003;50652;51.482;-0.580;2023-05-20T08:26:35;21;19;
64315;PMS5003;50652;51.482;-0.580;2023-05-20T08:29:03;18;18;
64315;PMS5003;50652;51.482;-0.580;2023-05-20T08:31:31;20;16;
64315;PMS5003;50652;51.482;-0.580;2023-05-20T08:33:58;18;14;
64315;PMS5003;50652;51.482;-0.580;2023-05-20T08:36:25;16;13;
64315;PMS5003;50652;51.482;-0.580;2023-05-20T08:38:52;19;17;
64315;PMS5003;50652;51.482;-0.580;2023-05-20T08:41:19;19;19;
64315;PMS5003;50652;51.482;-0.580;2023-05-20T08:43:47;20;18;
64315;PMS5003;50652;51.482;-0.580;2023-05-20T08:46:16;21;19;
64315;PMS5003;50652;51.482;-0.580;2023-05-20T08:48:44;20;18;
64315;PMS5003;50652;51.482;-0.580;2023-05-20T08:51:12;22;16;
64315;PMS5003;50652;51.482;-0.580;2023-05-20T08:53:41;19;17;
64315;PMS5003;50652;51.482;-0.580;2023-05-20T08:56:09;18;17;
64315;PMS5003;50652;51.482;-0.580;2023-05-20T08:58:38;16;16;
64315;PMS5003;50652;51.482;-0.580;2023-05-20T09:01:06;14;12;
64315;PMS5003;50652;51.482;-0.580;2023-05-20T09:03:33;16;15;
64315;PMS5003;50652;51.482;-0.580;2023-05-20T09:06:02;18;16;
64315;PMS5003;50652;51.482;-0.580;2023-05-20T09:08:31;19;19;
64315;PMS5003;50652;51.482;-0.580;2023-05-20T09:10:59;16;15;
64315;PMS5003;50652;51.482;-0.580;2023-05-20T09:13:28;15;14;
64315;PMS5003;50652;51.482;-0.580;2023-05-20T09:15:56;14;12;
64315;PMS5003;50652;51.482;-0.580;2023-05-20T09:18:26;15;12;
64315;PMS5003;50652;51.482;-0.580;2023-05-20T09:20:54;15;12;
64315;PMS5003;50652;51.482;-0.580;2023-05-20T09:23:21;17;15;
64315;PMS5003;50652;51.482;-0.580;2023-05-20T09:25:48;17;17;
64315;PMS5003;50652;51.482;-0.580;2023-05-20T09:28:17;16;13;
64315;PMS5003;50652;51.482;-0.580;2023-05-20T09:30:47;11;10;
64315;PMS5003;50652;51.482;-0.580;2023-05-20T09:33:15;12;10;
64315;PMS5003;50652;51.482;-0.580;2023-05-20T09:35:42;15;13;
64315;PMS5003;50652;51.482;-0.580;2023-05-20T09:38:09;18;13;
64315;PMS5003;50652;51.482;-0.580;2023-05-20T09:40:42;14;12;
64315;PMS5003;50652;51.482;-0.580;2023-05-20T09:43:11;13;13;
64315;PMS5003;50652;51.482;-0.580;2023-05-20T09:45:39;11;10;
64315;PMS5003;50652;51.482;-0.580;2023-05-20T09:48:07;14;11;
64315;PMS5003;50652;51.482;-0.580;2023-05-20T09:50:36;14;12;
64315;PMS5003;50652;51.482;-0.580;2023-05-20T09:53:04;18;15;
64315;PMS5003;50652;51.482;-0.580;2023-05-20T09:55:32;13;13;
64315;PMS5003;50652;51.482;-0.580;2023-05-20T09:58:01;11;9;
64315;PMS5003;50652;51.482;-0.580;2023-05-20T10:00:28;16;13;
64315;PMS5003;50652;51.482;-0.580;2023-05-20T10:02:56;14;11;
64315;PMS5003;50652;51.482;-0.580;2023-05-20T10:05:24;14;12;
64315;PMS5003;50652;51.482;-0.580;2023-05-20T10:08:01;12;11;
64315;PMS5003;50652;51.482;-0.580;2023-05-20T10:10:49;12;12;
64315;PMS5003;50652;51.482;-0.580;2023-05-20T10:13:24;13;13;
64315;PMS5003;50652;51.482;-0.580;2023-05-20T10:16:05;11;9;
64315;PMS5003;50652;51.482;-0.580;2023-05-20T10:18:44;26;25;
64315;PMS5003;50652;51.482;-0.580;2023-05-20T10:21:20;29;27;
64315;PMS5003;50652;51.482;-0.580;2023-05-20T10:23:48;19;16;
64315;PMS5003;50652;51.482;-0.580;2023-05-20T10:26:15;12;9;
64315;PMS5003;50652;51.482;-0.580;2023-05-20T10:28:42;13;11;
64315;PMS5003;50652;51.482;-0.580;2023-05-20T10:31:14;12;10;
64315;PMS5003;50652;51.482;-0.580;2023-05-20T10:33:44;12;9;
64315;PMS5003;50652;51.482;-0.580;2023-05-20T10:36:28;14;13;
64315;PMS5003;50652;51.482;-0.580;2023-05-20T10:38:56;13;11;
64315;PMS5003;50652;51.482;-0.580;2023-05-20T10:41:24;14;12;
64315;PMS5003;50652;51.482;-0.580;2023-05-20T10:44:00;10;8;
64315;PMS5003;50652;51.482;-0.580;2023-05-20T10:46:28;13;12;
64315;PMS5003;50652;51.482;-0.580;2023-05-20T10:48:55;12;10;
64315;PMS5003;50652;51.482;-0.580;2023-05-20T10:51:22;17;13;
64315;PMS5003;50652;51.482;-0.580;2023-05-20T10:53:51;15;12;
64315;PMS5003;50652;51.482;-0.580;2023-05-20T10:56:21;13;11;
64315;PMS5003;50652;51.482;-0.580;2023-05-20T10:58:49;10;9;
64315;PMS5003;50652;51.482;-0.580;2023-05-20T11:01:17;14;10;
64315;PMS5003;50652;51.482;-0.580;2023-05-20T11:03:45;17;10;
64315;PMS5003;50652;51.482;-0.580;2023-05-20T11:06:13;12;9;
64315;PMS5003;50652;51.482;-0.580;2023-05-20T11:08:45;14;14;
64315;PMS5003;50652;51.482;-0.580;2023-05-20T11:11:12;10;8;
64315;PMS5003;50652;51.482;-0.580;2023-05-20T11:13:40;14;13;
64315;PMS5003;50652;51.482;-0.580;2023-05-20T11:16:07;11;10;
64315;PMS5003;50652;51.482;-0.580;2023-05-20T11:18:35;13;12;
64315;PMS5003;50652;51.482;-0.580;2023-05-20T11:21:02;13;10;
64315;PMS5003;50652;51.482;-0.580;2023-05-20T11:23:29;11;11;
64315;PMS5003;50652;51.482;-0.580;2023-05-20T11:25:56;17;12;
64315;PMS5003;50652;51.482;-0.580;2023-05-20T11:28:24;12;12;
64315;PMS5003;50652;51.482;-0.580;2023-05-20T11:30:52;13;11;
64315;PMS5003;50652;51.482;-0.580;2023-05-20T11:33:19;11;11;
64315;PMS5003;50652;51.482;-0.580;2023-05-20T11:35:51;15;13;
64315;PMS5003;50652;51.482;-0.580;2023-05-20T11:38:19;9;9;
64315;PMS5003;50652;51.482;-0.580;2023-05-20T11:40:49;11;11;
64315;PMS5003;50652;51.482;-0.580;2023-05-20T11:43:18;9;9;
64315;PMS5003;50652;51.482;-0.580;2023-05-20T11:45:46;8;6;
64315;PMS5003;50652;51.482;-0.580;2023-05-20T11:48:18;13;10;
64315;PMS5003;50652;51.482;-0.580;2023-05-20T11:50:46;14;12;
64315;PMS5003;50652;51.482;-0.580;2023-05-20T11:53:14;10;10;
64315;PMS5003;50652;51.482;-0.580;2023-05-20T11:55:43;13;11;
64315;PMS5003;50652;51.482;-0.580;2023-05-20T11:58:14;13;12;
64315;PMS5003;50652;51.482;-0.580;2023-05-20T12:00:41;10;10;
64315;PMS5003;50652;51.482;-0.580;2023-05-20T12:03:08;14;12;
64315;PMS5003;50652;51.482;-0.580;2023-05-20T12:05:35;12;10;
64315;PMS5003;50652;51.482;-0.580;2023-05-20T12:08:02;9;9;
64315;PMS5003;50652;51.482;-0.580;2023-05-20T12:10:30;9;9;
64315;PMS5003;50652;51.482;-0.580;2023-05-20T12:12:57;13;10;
64315;PMS5003;50652;51.482;-0.580;2023-05-20T12:15:24;10;10;
64315;PMS5003;50652;51.482;-0.580;2023-05-20T12:17:52;11;10;
64315;PMS5003;50652;51.482;-0.580;2023-05-20T12:20:20;12;12;
64315;PMS5003;50652;51.482;-0.580;2023-05-20T12:22:47;11;11;
64315;PMS5003;50652;51.482;-0.580;2023-05-20T12:25:15;9;9;
64315;PMS5003;50652;51.482;-0.580;2023-05-20T12:27:44;9;9;
64315;PMS5003;50652;51.482;-0.580;2023-05-20T12:30:11;12;8;
64315;PMS5003;50652;51.482;-0.580;2023-05-20T12:32:40;8;8;
64315;PMS5003;50652;51.482;-0.580;2023-05-20T12:35:07;9;9;
64315;PMS5003;50652;51.482;-0.580;2023-05-20T12:37:36;13;9;
64315;PMS5003;50652;51.482;-0.580;2023-05-20T12:40:04;13;8;
64315;PMS5003;50652;51.482;-0.580;2023-05-20T12:42:31;6;5;
64315;PMS5003;50652;51.482;-0.580;2023-05-20T12:44:58;8;8;
64315;PMS5003;50652;51.482;-0.580;2023-05-20T12:47:26;8;8;
64315;PMS5003;50652;51.482;-0.580;2023-05-20T12:49:53;10;7;
64315;PMS5003;50652;51.482;-0.580;2023-05-20T12:52:20;11;9;
64315;PMS5003;50652;51.482;-0.580;2023-05-20T12:54:47;10;9;
64315;PMS5003;50652;51.482;-0.580;2023-05-20T12:57:14;13;10;
64315;PMS5003;50652;51.482;-0.580;2023-05-20T12:59:41;10;9;
64315;PMS5003;50652;51.482;-0.580;2023-05-20T13:02:08;10;8;
64315;PMS5003;50652;51.482;-0.580;2023-05-20T13:04:36;10;10;
64315;PMS5003;50652;51.482;-0.580;2023-05-20T13:07:03;12;9;
64315;PMS5003;50652;51.482;-0.580;2023-05-20T13:09:30;11;10;
64315;PMS5003;50652;51.482;-0.580;2023-05-20T13:11:58;8;8;
64315;PMS5003;50652;51.482;-0.580;2023-05-20T13:14:25;10;8;
64315;PMS5003;50652;51.482;-0.580;2023-05-20T13:16:52;11;11;
64315;PMS5003;50652;51.482;-0.580;2023-05-20T13:19:19;9;9;
64315;PMS5003;50652;51.482;-0.580;2023-05-20T13:21:47;8;8;
64315;PMS5003;50652;51.482;-0.580;2023-05-20T13:24:13;8;8;
64315;PMS5003;50652;51.482;-0.580;2023-05-20T13:26:41;14;11;
64315;PMS5003;50652;51.482;-0.580;2023-05-20T13:29:08;7;7;
64315;PMS5003;50652;51.482;-0.580;2023-05-20T13:31:36;9;6;
64315;PMS5003;50652;51.482;-0.580;2023-05-20T13:34:02;8;8;
64315;PMS5003;50652;51.482;-0.580;2023-05-20T13:36:29;9;9;
64315;PMS5003;50652;51.482;-0.580;2023-05-20T13:38:57;7;7;
64315;PMS5003;50652;51.482;-0.580;2023-05-20T13:41:24;11;7;
64315;PMS5003;50652;51.482;-0.580;2023-05-20T13:43:51;8;8;
64315;PMS5003;50652;51.482;-0.580;2023-05-20T13:46:18;13;8;
64315;PMS5003;50652;51.482;-0.580;2023-05-20T13:48:45;12;11;
64315;PMS5003;50652;51.482;-0.580;2023-05-20T13:51:12;7;7;
64315;PMS5003;50652;51.482;-0.580;2023-05-20T13:53:39;8;8;
64315;PMS5003;50652;51.482;-0.580;2023-05-20T13:56:06;9;7;
64315;PMS5003;50652;51.482;-0.580;2023-05-20T13:58:32;8;7;
64315;PMS5003;50652;51.482;-0.580;2023-05-20T14:00:59;9;8;
64315;PMS5003;50652;51.482;-0.580;2023-05-20T14:03:26;11;8;
64315;PMS5003;50652;51.482;-0.580;2023-05-20T14:05:54;7;7;
64315;PMS5003;50652;51.482;-0.580;2023-05-20T14:08:21;9;9;
64315;PMS5003;50652;51.482;-0.580;2023-05-20T14:10:48;9;8;
64315;PMS5003;50652;51.482;-0.580;2023-05-20T14:13:15;7;6;
64315;PMS5003;50652;51.482;-0.580;2023-05-20T14:15:42;9;9;
64315;PMS5003;50652;51.482;-0.580;2023-05-20T14:18:09;9;7;
64315;PMS5003;50652;51.482;-0.580;2023-05-20T14:20:36;9;8;
64315;PMS5003;50652;51.482;-0.580;2023-05-20T14:23:08;11;7;
64315;PMS5003;50652;51.482;-0.580;2023-05-20T14:25:36;8;7;
64315;PMS5003;50652;51.482;-0.580;2023-05-20T14:28:04;9;9;
64315;PMS5003;50652;51.482;-0.580;2023-05-20T14:30:36;8;8;
64315;PMS5003;50652;51.482;-0.580;2023-05-20T14:33:03;9;9;
64315;PMS5003;50652;51.482;-0.580;2023-05-20T14:35:30;8;7;
64315;PMS5003;50652;51.482;-0.580;2023-05-20T14:37:58;5;5;
64315;PMS5003;50652;51.482;-0.580;2023-05-20T14:40:26;10;6;
64315;PMS5003;50652;51.482;-0.580;2023-05-20T14:42:53;8;8;
64315;PMS5003;50652;51.482;-0.580;2023-05-20T14:45:22;7;7;
64315;PMS5003;50652;51.482;-0.580;2023-05-20T14:47:50;9;7;
64315;PMS5003;50652;51.482;-0.580;2023-05-20T14:50:17;8;8;
64315;PMS5003;50652;51.482;-0.580;2023-05-20T14:52:44;10;8;
64315;PMS5003;50652;51.482;-0.580;2023-05-20T14:55:11;8;8;
64315;PMS5003;50652;51.482;-0.580;2023-05-20T14:57:38;9;7;
64315;PMS5003;50652;51.482;-0.580;2023-05-20T15:00:06;8;8;
64315;PMS5003;50652;51.482;-0.580;2023-05-20T15:02:35;6;6;
64315;PMS5003;50652;51.482;-0.580;2023-05-20T15:05:02;7;7;
64315;PMS5003;50652;51.482;-0.580;2023-05-20T15:07:28;7;7;
64315;PMS5003;50652;51.482;-0.580;2023-05-20T15:09:56;8;8;
64315;PMS5003;50652;51.482;-0.580;2023-05-20T15:12:23;5;5;
64315;PMS5003;50652;51.482;-0.580;2023-05-20T15:14:49;8;7;
64315;PMS5003;50652;51.482;-0.580;2023-05-20T15:17:16;7;7;
64315;PMS5003;50652;51.482;-0.580;2023-05-20T15:19:43;8;8;
64315;PMS5003;50652;51.482;-0.580;2023-05-20T15:22:11;7;7;
64315;PMS5003;50652;51.482;-0.580;2023-05-20T15:24:39;7;7;
64315;PMS5003;50652;51.482;-0.580;2023-05-20T15:27:06;9;8;
64315;PMS5003;50652;51.482;-0.580;2023-05-20T15:29:33;6;6;
64315;PMS5003;50652;51.482;-0.580;2023-05-20T15:32:00;8;8;
64315;PMS5003;50652;51.482;-0.580;2023-05-20T15:34:27;10;8;
64315;PMS5003;50652;51.482;-0.580;2023-05-20T15:36:54;8;8;
64315;PMS5003;50652;51.482;-0.580;2023-05-20T15:39:21;7;7;
64315;PMS5003;50652;51.482;-0.580;2023-05-20T15:41:48;6;4;
64315;PMS5003;50652;51.482;-0.580;2023-05-20T15:44:15;9;8;
64315;PMS5003;50652;51.482;-0.580;2023-05-20T15:46:42;10;9;
64315;PMS5003;50652;51.482;-0.580;2023-05-20T15:49:09;6;6;
64315;PMS5003;50652;51.482;-0.580;2023-05-20T15:51:36;5;5;
64315;PMS5003;50652;51.482;-0.580;2023-05-20T15:54:03;7;7;
64315;PMS5003;50652;51.482;-0.580;2023-05-20T15:56:30;9;9;
64315;PMS5003;50652;51.482;-0.580;2023-05-20T15:58:57;6;6;
64315;PMS5003;50652;51.482;-0.580;2023-05-20T16:01:24;8;6;
64315;PMS5003;50652;51.482;-0.580;2023-05-20T16:03:51;6;6;
64315;PMS5003;50652;51.482;-0.580;2023-05-20T16:06:18;7;7;
64315;PMS5003;50652;51.482;-0.580;2023-05-20T16:08:45;6;6;
64315;PMS5003;50652;51.482;-0.580;2023-05-20T16:11:12;7;7;
64315;PMS5003;50652;51.482;-0.580;2023-05-20T16:13:39;7;7;
64315;PMS5003;50652;51.482;-0.580;2023-05-20T16:16:06;8;8;
64315;PMS5003;50652;51.482;-0.580;2023-05-20T16:18:33;8;7;